»·PEaware :: N525SA KPDX-KONP

N525SA :: KPDX-KONP

FLIGHT INFORMATION

Flight Status: Arrived
Operator: Privately registered:
United States
More flights under this callsign
Pilot: Utku A. (15598)
Aircraft: SOCATA TBM-900
(TBM9)
More flights by this aircraft type
Origin: KPDX Portland Intl
United States
Destination: KONP Newport Mun
United States
More flights between these airports :: More routes between these airports
Route: UBG V182 ONP
File this flight plan on PilotEdge
Remarks:
Altitude:
(Current/Filed)
14,000ft
Speed:
(Current/Filed)
280kts
Departed: 29-Oct-18 05:35 PM
Arrived: 29-Oct-18 06:11 PM
Distance/Time
Traveled:
87nm/0:36
Distance/Time
To Go:
Arrived

Flight Plot

Page will automatically refresh every two minutes.

Flight plan parsing failed; only flown route is shown


Map Options




Map Legend


Flown Route
Filed Route
Departure Airport
Arrival Airport
Navaid (VOR, NDB)
Fix

Horizontal Profiles

Position Reports

Time Latitude Longitude Heading Altitude Ground
Speed
29-Oct-18 17:22 45.588178 -122.585086 210 32ft 0kts
29-Oct-18 17:23 45.588178 -122.585086 210 32ft 0kts
29-Oct-18 17:24 45.588178 -122.585086 210 32ft 0kts
29-Oct-18 17:25 45.588178 -122.585086 210 32ft 0kts
29-Oct-18 17:26 45.588178 -122.585086 210 32ft 0kts
29-Oct-18 17:27 45.588178 -122.585086 210 32ft 0kts
29-Oct-18 17:28 45.588178 -122.585086 210 32ft 0kts
29-Oct-18 17:29 45.588178 -122.585086 210 32ft 0kts
29-Oct-18 17:30 45.588178 -122.585086 210 32ft 0kts
29-Oct-18 17:31 45.588178 -122.585086 210 32ft 0kts
29-Oct-18 17:32 45.588067 -122.584938 80 32ft 4kts
29-Oct-18 17:33 45.589684 -122.586509 19 32ft 11kts
29-Oct-18 17:34 45.591860 -122.591281 299 32ft 16kts
29-Oct-18 17:35 45.594105 -122.597032 300 32ft 11kts
29-Oct-18 17:36 45.594550 -122.597341 43 32ft 4kts
29-Oct-18 17:37 45.590461 -122.584367 117 186ft 111kts
29-Oct-18 17:38 45.575214 -122.545309 117 2201ft 121kts
29-Oct-18 17:39 45.550652 -122.540001 247 4231ft 128kts
29-Oct-18 17:40 45.532119 -122.581094 240 6214ft 135kts
29-Oct-18 17:42 45.512416 -122.626310 240 8544ft 139kts
29-Oct-18 17:43 45.491850 -122.672199 242 10710ft 140kts
29-Oct-18 17:44 45.471371 -122.717642 243 12987ft 136kts
29-Oct-18 17:45 45.448765 -122.768073 242 14048ft 192kts
29-Oct-18 17:46 45.415731 -122.840873 241 14012ft 237kts
29-Oct-18 17:47 45.378840 -122.921953 241 14008ft 248kts
29-Oct-18 17:48 45.337085 -123.000798 229 14010ft 254kts
29-Oct-18 17:49 45.286921 -123.072155 229 14004ft 255kts
29-Oct-18 17:50 45.236443 -123.143513 229 13924ft 257kts
29-Oct-18 17:51 45.185853 -123.214823 229 13924ft 256kts
29-Oct-18 17:52 45.135713 -123.285319 229 13924ft 256kts
29-Oct-18 17:53 45.085163 -123.356220 229 13924ft 256kts
29-Oct-18 17:54 45.034632 -123.426892 228 13930ft 256kts
29-Oct-18 17:55 44.983908 -123.497638 228 13938ft 256kts
29-Oct-18 17:56 44.937705 -123.561682 229 13927ft 206kts
29-Oct-18 17:57 44.899096 -123.615360 228 12864ft 195kts
29-Oct-18 17:58 44.861641 -123.667257 227 11368ft 190kts
29-Oct-18 17:59 44.823911 -123.719472 226 9642ft 196kts
29-Oct-18 18:00 44.784942 -123.773236 225 8033ft 186kts
29-Oct-18 18:01 44.786854 -123.830939 302 6971ft 162kts
29-Oct-18 18:02 44.809797 -123.882107 296 5695ft 155kts
29-Oct-18 18:03 44.827403 -123.938487 287 4227ft 161kts
29-Oct-18 18:04 44.837961 -123.996055 278 3987ft 146kts
29-Oct-18 18:05 44.825213 -124.040667 205 3997ft 141kts
29-Oct-18 18:06 44.790230 -124.065066 206 3997ft 142kts
29-Oct-18 18:07 44.750592 -124.070159 178 3490ft 161kts
29-Oct-18 18:08 44.710439 -124.067501 177 2584ft 117kts
29-Oct-18 18:09 44.682421 -124.066029 174 2091ft 98kts
29-Oct-18 18:10 44.655278 -124.063935 176 1416ft 96kts
29-Oct-18 18:10 44.634353 -124.062476 176 1132ft 84kts
29-Oct-18 18:12 44.606198 -124.060641 176 559ft 85kts
29-Oct-18 18:13 44.583042 -124.059159 176 131ft 69kts
29-Oct-18 18:14 44.578885 -124.060966 268 124ft 9kts
29-Oct-18 18:14 44.578734 -124.061464 216 122ft 0kts
29-Oct-18 18:15 44.578734 -124.061464 216 122ft 0kts
29-Oct-18 18:16 44.578734 -124.061464 216 122ft 0kts
29-Oct-18 18:17 44.578734 -124.061464 216 122ft 0kts
29-Oct-18 18:18 44.578734 -124.061464 216 122ft 0kts
29-Oct-18 18:19 44.578734 -124.061464 216 122ft 0kts
29-Oct-18 18:20 44.578734 -124.061464 216 122ft 0kts
29-Oct-18 18:21 44.578734 -124.061464 216 122ft 0kts
29-Oct-18 18:22 44.578734 -124.061464 216 122ft 0kts
29-Oct-18 18:23 44.578734 -124.061464 216 122ft 0kts
29-Oct-18 18:24 44.578734 -124.061464 216 122ft 0kts

Navigation Log

Ident Type
Flight plan parsing failed, navigation log unavailable